sensor_id;sensor_type;location;lat;lon;timestamp;P1;durP1;ratioP1;P2;durP2;ratioP2
6941;SDS011;3510;43.200;27.920;2023-04-15T00:01:32;8.83;;;5.00;;
6941;SDS011;3510;43.200;27.920;2023-04-15T00:04:01;12.90;;;6.27;;
6941;SDS011;3510;43.200;27.920;2023-04-15T00:06:29;15.37;;;6.73;;
6941;SDS011;3510;43.200;27.920;2023-04-15T00:08:56;20.07;;;6.73;;
6941;SDS011;3510;43.200;27.920;2023-04-15T00:11:23;7.20;;;5.97;;
6941;SDS011;3510;43.200;27.920;2023-04-15T00:13:52;11.97;;;7.10;;
6941;SDS011;3510;43.200;27.920;2023-04-15T00:16:18;13.83;;;6.80;;
6941;SDS011;3510;43.200;27.920;2023-04-15T00:18:47;8.50;;;6.30;;
6941;SDS011;3510;43.200;27.920;2023-04-15T00:21:14;10.37;;;6.13;;
6941;SDS011;3510;43.200;27.920;2023-04-15T00:23:40;15.53;;;5.97;;
6941;SDS011;3510;43.200;27.920;2023-04-15T00:26:08;14.73;;;6.80;;
6941;SDS011;3510;43.200;27.920;2023-04-15T00:28:34;19.90;;;11.03;;
6941;SDS011;3510;43.200;27.920;2023-04-15T00:31:03;9.70;;;5.73;;
6941;SDS011;3510;43.200;27.920;2023-04-15T00:33:30;12.17;;;6.67;;
6941;SDS011;3510;43.200;27.920;2023-04-15T00:35:56;10.90;;;5.87;;
6941;SDS011;3510;43.200;27.920;2023-04-15T00:38:23;10.60;;;5.97;;
6941;SDS011;3510;43.200;27.920;2023-04-15T00:40:50;12.90;;;6.33;;
6941;SDS011;3510;43.200;27.920;2023-04-15T00:43:17;18.17;;;6.93;;
6941;SDS011;3510;43.200;27.920;2023-04-15T00:45:44;18.83;;;6.53;;
6941;SDS011;3510;43.200;27.920;2023-04-15T00:48:27;17.23;;;6.63;;
6941;SDS011;3510;43.200;27.920;2023-04-15T00:50:55;20.67;;;6.73;;
6941;SDS011;3510;43.200;27.920;2023-04-15T00:53:22;10.30;;;6.27;;
6941;SDS011;3510;43.200;27.920;2023-04-15T00:55:49;8.67;;;6.43;;
6941;SDS011;3510;43.200;27.920;2023-04-15T00:58:16;12.57;;;6.40;;
6941;SDS011;3510;43.200;27.920;2023-04-15T01:00:43;7.17;;;6.47;;
6941;SDS011;3510;43.200;27.920;2023-04-15T01:03:12;14.17;;;6.67;;
6941;SDS011;3510;43.200;27.920;2023-04-15T01:05:41;10.33;;;6.17;;
6941;SDS011;3510;43.200;27.920;2023-04-15T01:08:07;11.23;;;5.80;;
6941;SDS011;3510;43.200;27.920;2023-04-15T01:10:34;8.60;;;5.77;;
6941;SDS011;3510;43.200;27.920;2023-04-15T01:13:02;13.37;;;6.33;;
6941;SDS011;3510;43.200;27.920;2023-04-15T01:15:29;7.13;;;5.33;;
6941;SDS011;3510;43.200;27.920;2023-04-15T01:17:56;8.60;;;5.80;;
6941;SDS011;3510;43.200;27.920;2023-04-15T01:20:26;10.00;;;4.87;;
6941;SDS011;3510;43.200;27.920;2023-04-15T01:22:55;6.00;;;5.07;;
6941;SDS011;3510;43.200;27.920;2023-04-15T01:25:27;10.07;;;5.30;;
6941;SDS011;3510;43.200;27.920;2023-04-15T01:27:58;12.37;;;5.27;;
6941;SDS011;3510;43.200;27.920;2023-04-15T01:30:25;9.37;;;4.73;;
6941;SDS011;3510;43.200;27.920;2023-04-15T01:32:52;8.53;;;4.50;;
6941;SDS011;3510;43.200;27.920;2023-04-15T01:35:19;4.90;;;3.73;;
6941;SDS011;3510;43.200;27.920;2023-04-15T01:37:46;5.63;;;3.90;;
6941;SDS011;3510;43.200;27.920;2023-04-15T01:40:15;8.70;;;4.40;;
6941;SDS011;3510;43.200;27.920;2023-04-15T01:42:49;4.90;;;3.60;;
6941;SDS011;3510;43.200;27.920;2023-04-15T01:45:16;4.83;;;3.50;;
6941;SDS011;3510;43.200;27.920;2023-04-15T01:47:44;10.90;;;3.70;;
6941;SDS011;3510;43.200;27.920;2023-04-15T01:50:25;6.83;;;3.00;;
6941;SDS011;3510;43.200;27.920;2023-04-15T01:53:05;6.97;;;3.47;;
6941;SDS011;3510;43.200;27.920;2023-04-15T01:55:32;3.23;;;2.90;;
6941;SDS011;3510;43.200;27.920;2023-04-15T01:58:02;4.83;;;3.10;;
6941;SDS011;3510;43.200;27.920;2023-04-15T02:00:30;6.00;;;3.27;;
6941;SDS011;3510;43.200;27.920;2023-04-15T02:03:04;6.53;;;3.37;;
6941;SDS011;3510;43.200;27.920;2023-04-15T02:05:31;5.33;;;3.53;;
6941;SDS011;3510;43.200;27.920;2023-04-15T02:07:58;8.07;;;3.20;;
6941;SDS011;3510;43.200;27.920;2023-04-15T02:10:25;5.13;;;4.07;;
6941;SDS011;3510;43.200;27.920;2023-04-15T02:12:52;10.20;;;3.53;;
6941;SDS011;3510;43.200;27.920;2023-04-15T02:15:20;5.47;;;4.07;;
6941;SDS011;3510;43.200;27.920;2023-04-15T02:17:48;8.57;;;3.43;;
6941;SDS011;3510;43.200;27.920;2023-04-15T02:20:17;3.90;;;3.50;;
6941;SDS011;3510;43.200;27.920;2023-04-15T02:22:45;12.23;;;3.67;;
6941;SDS011;3510;43.200;27.920;2023-04-15T02:25:12;8.00;;;3.73;;
6941;SDS011;3510;43.200;27.920;2023-04-15T02:27:40;6.37;;;3.60;;
6941;SDS011;3510;43.200;27.920;2023-04-15T02:30:07;5.53;;;3.87;;
6941;SDS011;3510;43.200;27.920;2023-04-15T02:32:36;3.63;;;3.33;;
6941;SDS011;3510;43.200;27.920;2023-04-15T02:35:03;5.03;;;3.20;;
6941;SDS011;3510;43.200;27.920;2023-04-15T02:37:31;5.00;;;3.10;;
6941;SDS011;3510;43.200;27.920;2023-04-15T02:40:01;5.20;;;3.27;;
6941;SDS011;3510;43.200;27.920;2023-04-15T02:42:30;3.97;;;3.67;;
6941;SDS011;3510;43.200;27.920;2023-04-15T02:44:58;3.63;;;2.60;;
6941;SDS011;3510;43.200;27.920;2023-04-15T02:47:24;2.70;;;2.50;;
6941;SDS011;3510;43.200;27.920;2023-04-15T02:49:53;5.93;;;3.10;;
6941;SDS011;3510;43.200;27.920;2023-04-15T02:52:20;4.00;;;3.37;;
6941;SDS011;3510;43.200;27.920;2023-04-15T02:54:47;3.43;;;3.13;;
6941;SDS011;3510;43.200;27.920;2023-04-15T02:57:13;6.33;;;2.90;;
6941;SDS011;3510;43.200;27.920;2023-04-15T02:59:40;6.17;;;2.80;;
6941;SDS011;3510;43.200;27.920;2023-04-15T03:02:07;4.27;;;3.00;;
6941;SDS011;3510;43.200;27.920;2023-04-15T03:04:34;3.63;;;2.17;;
6941;SDS011;3510;43.200;27.920;2023-04-15T03:07:02;3.60;;;2.47;;
6941;SDS011;3510;43.200;27.920;2023-04-15T03:09:31;4.77;;;2.67;;
6941;SDS011;3510;43.200;27.920;2023-04-15T03:11:58;3.57;;;2.80;;
6941;SDS011;3510;43.200;27.920;2023-04-15T03:14:24;9.47;;;2.80;;
6941;SDS011;3510;43.200;27.920;2023-04-15T03:16:51;3.03;;;2.37;;
6941;SDS011;3510;43.200;27.920;2023-04-15T03:19:18;8.57;;;2.70;;
6941;SDS011;3510;43.200;27.920;2023-04-15T03:21:45;5.53;;;2.80;;
6941;SDS011;3510;43.200;27.920;2023-04-15T03:24:13;9.00;;;3.17;;
6941;SDS011;3510;43.200;27.920;2023-04-15T03:26:40;15.77;;;3.20;;
6941;SDS011;3510;43.200;27.920;2023-04-15T03:29:07;5.50;;;3.00;;
6941;SDS011;3510;43.200;27.920;2023-04-15T03:31:34;7.40;;;2.87;;
6941;SDS011;3510;43.200;27.920;2023-04-15T03:34:00;6.57;;;3.20;;
6941;SDS011;3510;43.200;27.920;2023-04-15T03:36:28;5.30;;;3.10;;
6941;SDS011;3510;43.200;27.920;2023-04-15T03:38:57;3.47;;;3.13;;
6941;SDS011;3510;43.200;27.920;2023-04-15T04:22:26;5.60;;;3.10;;
6941;SDS011;3510;43.200;27.920;2023-04-15T04:24:53;3.03;;;2.73;;
6941;SDS011;3510;43.200;27.920;2023-04-15T04:27:20;7.60;;;2.90;;
6941;SDS011;3510;43.200;27.920;2023-04-15T04:29:47;8.20;;;3.63;;
6941;SDS011;3510;43.200;27.920;2023-04-15T04:32:14;5.07;;;3.70;;
6941;SDS011;3510;43.200;27.920;2023-04-15T04:34:41;12.40;;;3.93;;
6941;SDS011;3510;43.200;27.920;2023-04-15T04:37:08;6.27;;;2.97;;
6941;SDS011;3510;43.200;27.920;2023-04-15T04:39:36;6.37;;;3.87;;
6941;SDS011;3510;43.200;27.920;2023-04-15T04:42:05;10.77;;;3.40;;
6941;SDS011;3510;43.200;27.920;2023-04-15T04:44:34;4.90;;;3.23;;
6941;SDS011;3510;43.200;27.920;2023-04-15T04:47:02;12.93;;;3.33;;
6941;SDS011;3510;43.200;27.920;2023-04-15T04:49:29;9.10;;;3.73;;
6941;SDS011;3510;43.200;27.920;2023-04-15T04:51:57;3.10;;;2.80;;
6941;SDS011;3510;43.200;27.920;2023-04-15T04:54:25;5.77;;;3.80;;
6941;SDS011;3510;43.200;27.920;2023-04-15T04:57:00;2.97;;;2.60;;
6941;SDS011;3510;43.200;27.920;2023-04-15T04:59:31;5.33;;;3.27;;
6941;SDS011;3510;43.200;27.920;2023-04-15T05:01:58;5.27;;;3.63;;
6941;SDS011;3510;43.200;27.920;2023-04-15T05:04:40;5.17;;;3.07;;
6941;SDS011;3510;43.200;27.920;2023-04-15T05:07:07;7.40;;;3.03;;
6941;SDS011;3510;43.200;27.920;2023-04-15T05:09:34;7.10;;;2.90;;
6941;SDS011;3510;43.200;27.920;2023-04-15T05:12:04;4.47;;;3.20;;
6941;SDS011;3510;43.200;27.920;2023-04-15T05:14:31;6.27;;;3.17;;
6941;SDS011;3510;43.200;27.920;2023-04-15T05:16:59;5.80;;;3.53;;
6941;SDS011;3510;43.200;27.920;2023-04-15T05:19:26;7.83;;;3.40;;
6941;SDS011;3510;43.200;27.920;2023-04-15T05:21:53;6.27;;;4.03;;
6941;SDS011;3510;43.200;27.920;2023-04-15T05:24:20;8.47;;;5.07;;
6941;SDS011;3510;43.200;27.920;2023-04-15T05:26:48;11.03;;;5.20;;
6941;SDS011;3510;43.200;27.920;2023-04-15T05:29:19;7.93;;;3.80;;
6941;SDS011;3510;43.200;27.920;2023-04-15T05:31:46;7.87;;;3.97;;
6941;SDS011;3510;43.200;27.920;2023-04-15T05:34:13;8.27;;;3.60;;
6941;SDS011;3510;43.200;27.920;2023-04-15T05:36:41;7.53;;;2.97;;
6941;SDS011;3510;43.200;27.920;2023-04-15T05:39:08;5.67;;;4.10;;
6941;SDS011;3510;43.200;27.920;2023-04-15T05:41:35;7.13;;;3.20;;
6941;SDS011;3510;43.200;27.920;2023-04-15T05:44:16;7.63;;;3.20;;
6941;SDS011;3510;43.200;27.920;2023-04-15T05:46:44;7.00;;;3.60;;
6941;SDS011;3510;43.200;27.920;2023-04-15T05:49:12;6.23;;;4.50;;
6941;SDS011;3510;43.200;27.920;2023-04-15T05:51:38;8.53;;;3.57;;
6941;SDS011;3510;43.200;27.920;2023-04-15T05:54:06;14.60;;;4.50;;
6941;SDS011;3510;43.200;27.920;2023-04-15T05:56:33;21.53;;;6.93;;
6941;SDS011;3510;43.200;27.920;2023-04-15T05:59:00;19.10;;;6.53;;
6941;SDS011;3510;43.200;27.920;2023-04-15T06:01:28;9.20;;;4.17;;
6941;SDS011;3510;43.200;27.920;2023-04-15T06:03:57;11.60;;;5.83;;
6941;SDS011;3510;43.200;27.920;2023-04-15T06:06:25;16.23;;;6.00;;
6941;SDS011;3510;43.200;27.920;2023-04-15T06:08:53;10.10;;;6.93;;
6941;SDS011;3510;43.200;27.920;2023-04-15T06:11:21;18.97;;;11.33;;
6941;SDS011;3510;43.200;27.920;2023-04-15T06:13:48;25.97;;;14.80;;
6941;SDS011;3510;43.200;27.920;2023-04-15T06:16:15;24.67;;;14.97;;
6941;SDS011;3510;43.200;27.920;2023-04-15T06:18:43;35.23;;;19.80;;
6941;SDS011;3510;43.200;27.920;2023-04-15T06:21:12;35.57;;;21.30;;
6941;SDS011;3510;43.200;27.920;2023-04-15T06:23:40;33.40;;;20.23;;
6941;SDS011;3510;43.200;27.920;2023-04-15T06:26:14;32.60;;;21.17;;
6941;SDS011;3510;43.200;27.920;2023-04-15T06:28:41;41.97;;;20.00;;
6941;SDS011;3510;43.200;27.920;2023-04-15T06:31:09;31.57;;;20.93;;
6941;SDS011;3510;43.200;27.920;2023-04-15T06:33:36;33.57;;;19.00;;
6941;SDS011;3510;43.200;27.920;2023-04-15T06:36:03;24.47;;;16.03;;
6941;SDS011;3510;43.200;27.920;2023-04-15T06:41:18;26.40;;;17.10;;
6941;SDS011;3510;43.200;27.920;2023-04-15T06:43:45;32.03;;;18.63;;
6941;SDS011;3510;43.200;27.920;2023-04-15T06:46:13;27.30;;;17.20;;
6941;SDS011;3510;43.200;27.920;2023-04-15T06:48:41;27.30;;;16.33;;
6941;SDS011;3510;43.200;27.920;2023-04-15T06:51:09;23.70;;;15.07;;
6941;SDS011;3510;43.200;27.920;2023-04-15T06:53:35;24.83;;;14.87;;
6941;SDS011;3510;43.200;27.920;2023-04-15T06:56:09;18.63;;;13.17;;
6941;SDS011;3510;43.200;27.920;2023-04-15T06:58:36;24.80;;;14.53;;
6941;SDS011;3510;43.200;27.920;2023-04-15T07:01:03;23.53;;;14.50;;
6941;SDS011;3510;43.200;27.920;2023-04-15T07:03:30;19.23;;;13.03;;
6941;SDS011;3510;43.200;27.920;2023-04-15T07:05:58;18.13;;;12.13;;
6941;SDS011;3510;43.200;27.920;2023-04-15T07:08:27;17.67;;;11.37;;
6941;SDS011;3510;43.200;27.920;2023-04-15T07:36:17;13.37;;;9.50;;
6941;SDS011;3510;43.200;27.920;2023-04-15T07:38:45;14.10;;;9.87;;
6941;SDS011;3510;43.200;27.920;2023-04-15T07:41:12;18.47;;;9.23;;
6941;SDS011;3510;43.200;27.920;2023-04-15T07:43:41;14.67;;;8.73;;
6941;SDS011;3510;43.200;27.920;2023-04-15T07:46:08;11.07;;;7.97;;
6941;SDS011;3510;43.200;27.920;2023-04-15T07:48:35;11.38;;;7.07;;
6941;SDS011;3510;43.200;27.920;2023-04-15T07:51:04;9.48;;;7.63;;
6941;SDS011;3510;43.200;27.920;2023-04-15T07:53:34;8.68;;;5.90;;
6941;SDS011;3510;43.200;27.920;2023-04-15T07:56:01;9.38;;;6.10;;
6941;SDS011;3510;43.200;27.920;2023-04-15T07:58:28;7.82;;;7.13;;
6941;SDS011;3510;43.200;27.920;2023-04-15T08:00:55;8.68;;;6.32;;
6941;SDS011;3510;43.200;27.920;2023-04-15T08:03:22;7.32;;;6.35;;
6941;SDS011;3510;43.200;27.920;2023-04-15T08:05:50;9.57;;;6.85;;
6941;SDS011;3510;43.200;27.920;2023-04-15T08:08:17;10.75;;;7.43;;
6941;SDS011;3510;43.200;27.920;2023-04-15T08:10:46;10.45;;;8.15;;
6941;SDS011;3510;43.200;27.920;2023-04-15T08:13:14;19.67;;;8.55;;
6941;SDS011;3510;43.200;27.920;2023-04-15T08:15:41;22.65;;;9.02;;
6941;SDS011;3510;43.200;27.920;2023-04-15T08:18:11;14.15;;;8.55;;
6941;SDS011;3510;43.200;27.920;2023-04-15T08:20:38;10.55;;;7.82;;
6941;SDS011;3510;43.200;27.920;2023-04-15T08:23:06;11.85;;;7.78;;
6941;SDS011;3510;43.200;27.920;2023-04-15T08:25:36;12.45;;;8.27;;
6941;SDS011;3510;43.200;27.920;2023-04-15T08:28:06;9.82;;;7.55;;
6941;SDS011;3510;43.200;27.920;2023-04-15T08:30:34;9.82;;;7.18;;
6941;SDS011;3510;43.200;27.920;2023-04-15T08:35:36;8.15;;;5.75;;
6941;SDS011;3510;43.200;27.920;2023-04-15T08:38:03;8.18;;;5.75;;
6941;SDS011;3510;43.200;27.920;2023-04-15T08:40:39;7.22;;;5.32;;
6941;SDS011;3510;43.200;27.920;2023-04-15T08:43:10;8.27;;;5.83;;
6941;SDS011;3510;43.200;27.920;2023-04-15T08:45:40;9.75;;;6.38;;
6941;SDS011;3510;43.200;27.920;2023-04-15T08:48:11;5.93;;;5.22;;
6941;SDS011;3510;43.200;27.920;2023-04-15T08:50:41;6.68;;;3.80;;
6941;SDS011;3510;43.200;27.920;2023-04-15T08:53:08;3.72;;;3.15;;
6941;SDS011;3510;43.200;27.920;2023-04-15T08:55:37;6.25;;;3.80;;
6941;SDS011;3510;43.200;27.920;2023-04-15T08:58:11;3.38;;;2.88;;
6941;SDS011;3510;43.200;27.920;2023-04-15T09:00:38;2.10;;;1.90;;
6941;SDS011;3510;43.200;27.920;2023-04-15T09:03:06;3.70;;;2.38;;
6941;SDS011;3510;43.200;27.920;2023-04-15T09:05:34;4.55;;;2.63;;
6941;SDS011;3510;43.200;27.920;2023-04-15T09:08:02;8.43;;;2.88;;
6941;SDS011;3510;43.200;27.920;2023-04-15T09:10:43;3.88;;;2.63;;
6941;SDS011;3510;43.200;27.920;2023-04-15T09:13:12;3.13;;;2.42;;
6941;SDS011;3510;43.200;27.920;2023-04-15T09:15:39;4.10;;;2.85;;
6941;SDS011;3510;43.200;27.920;2023-04-15T09:18:06;9.00;;;4.85;;
6941;SDS011;3510;43.200;27.920;2023-04-15T09:20:38;5.03;;;3.03;;
6941;SDS011;3510;43.200;27.920;2023-04-15T09:23:14;7.68;;;3.08;;
6941;SDS011;3510;43.200;27.920;2023-04-15T09:25:56;5.18;;;3.25;;
6941;SDS011;3510;43.200;27.920;2023-04-15T09:28:29;6.47;;;3.50;;
6941;SDS011;3510;43.200;27.920;2023-04-15T09:30:56;3.05;;;2.78;;
6941;SDS011;3510;43.200;27.920;2023-04-15T09:33:26;6.80;;;2.97;;
6941;SDS011;3510;43.200;27.920;2023-04-15T09:35:55;4.85;;;3.03;;
6941;SDS011;3510;43.200;27.920;2023-04-15T09:38:24;3.53;;;3.00;;
6941;SDS011;3510;43.200;27.920;2023-04-15T09:40:51;2.85;;;2.55;;
6941;SDS011;3510;43.200;27.920;2023-04-15T09:43:40;4.25;;;2.65;;
6941;SDS011;3510;43.200;27.920;2023-04-15T09:46:06;5.20;;;2.67;;
6941;SDS011;3510;43.200;27.920;2023-04-15T09:48:33;4.95;;;3.67;;
6941;SDS011;3510;43.200;27.920;2023-04-15T09:51:00;3.70;;;2.70;;
6941;SDS011;3510;43.200;27.920;2023-04-15T09:53:27;4.50;;;3.15;;
6941;SDS011;3510;43.200;27.920;2023-04-15T09:55:55;4.07;;;2.25;;
6941;SDS011;3510;43.200;27.920;2023-04-15T09:58:26;6.20;;;2.05;;
6941;SDS011;3510;43.200;27.920;2023-04-15T10:00:57;2.60;;;2.40;;
6941;SDS011;3510;43.200;27.920;2023-04-15T10:03:38;2.58;;;2.28;;
6941;SDS011;3510;43.200;27.920;2023-04-15T10:06:07;2.45;;;2.25;;
6941;SDS011;3510;43.200;27.920;2023-04-15T10:16:24;3.90;;;2.05;;
6941;SDS011;3510;43.200;27.920;2023-04-15T10:18:54;3.45;;;2.60;;
6941;SDS011;3510;43.200;27.920;2023-04-15T10:21:21;3.95;;;2.15;;
6941;SDS011;3510;43.200;27.920;2023-04-15T10:23:48;4.72;;;2.47;;
6941;SDS011;3510;43.200;27.920;2023-04-15T10:26:16;5.15;;;2.13;;
6941;SDS011;3510;43.200;27.920;2023-04-15T10:28:44;6.05;;;2.00;;
6941;SDS011;3510;43.200;27.920;2023-04-15T10:31:13;2.17;;;1.98;;
6941;SDS011;3510;43.200;27.920;2023-04-15T10:33:44;3.63;;;2.22;;
6941;SDS011;3510;43.200;27.920;2023-04-15T10:36:12;7.00;;;2.53;;
6941;SDS011;3510;43.200;27.920;2023-04-15T10:38:40;3.65;;;2.08;;
6941;SDS011;3510;43.200;27.920;2023-04-15T10:41:12;2.70;;;2.33;;
6941;SDS011;3510;43.200;27.920;2023-04-15T10:43:44;1.98;;;1.70;;
6941;SDS011;3510;43.200;27.920;2023-04-15T10:46:16;2.38;;;1.70;;
6941;SDS011;3510;43.200;27.920;2023-04-15T10:48:48;3.00;;;1.60;;
6941;SDS011;3510;43.200;27.920;2023-04-15T10:51:25;2.92;;;1.70;;
6941;SDS011;3510;43.200;27.920;2023-04-15T10:53:56;2.30;;;1.92;;
6941;SDS011;3510;43.200;27.920;2023-04-15T10:56:24;2.97;;;1.70;;
6941;SDS011;3510;43.200;27.920;2023-04-15T10:58:51;2.28;;;1.70;;
6941;SDS011;3510;43.200;27.920;2023-04-15T11:01:18;2.33;;;1.60;;
6941;SDS011;3510;43.200;27.920;2023-04-15T11:03:48;3.78;;;1.70;;
6941;SDS011;3510;43.200;27.920;2023-04-15T11:06:16;5.75;;;2.78;;
6941;SDS011;3510;43.200;27.920;2023-04-15T11:14:23;4.60;;;2.65;;
6941;SDS011;3510;43.200;27.920;2023-04-15T11:16:49;5.72;;;2.53;;
6941;SDS011;3510;43.200;27.920;2023-04-15T11:19:18;4.35;;;1.90;;
6941;SDS011;3510;43.200;27.920;2023-04-15T11:21:45;2.78;;;2.13;;
6941;SDS011;3510;43.200;27.920;2023-04-15T11:24:19;3.83;;;1.63;;
6941;SDS011;3510;43.200;27.920;2023-04-15T11:26:55;1.55;;;1.30;;
6941;SDS011;3510;43.200;27.920;2023-04-15T11:29:27;3.42;;;1.52;;
6941;SDS011;3510;43.200;27.920;2023-04-15T11:32:00;2.72;;;1.50;;
6941;SDS011;3510;43.200;27.920;2023-04-15T11:34:33;3.47;;;1.77;;
6941;SDS011;3510;43.200;27.920;2023-04-15T11:37:02;3.13;;;1.60;;
6941;SDS011;3510;43.200;27.920;2023-04-15T11:39:32;3.90;;;1.80;;
6941;SDS011;3510;43.200;27.920;2023-04-15T11:41:58;7.68;;;1.90;;
6941;SDS011;3510;43.200;27.920;2023-04-15T11:44:25;5.00;;;2.35;;
6941;SDS011;3510;43.200;27.920;2023-04-15T11:46:53;5.28;;;2.67;;
6941;SDS011;3510;43.200;27.920;2023-04-15T11:49:28;4.40;;;2.92;;
6941;SDS011;3510;43.200;27.920;2023-04-15T11:51:59;5.13;;;1.90;;
6941;SDS011;3510;43.200;27.920;2023-04-15T11:54:26;3.08;;;1.90;;
6941;SDS011;3510;43.200;27.920;2023-04-15T11:56:53;4.57;;;1.80;;
6941;SDS011;3510;43.200;27.920;2023-04-15T11:59:20;6.60;;;2.67;;
6941;SDS011;3510;43.200;27.920;2023-04-15T12:01:47;3.50;;;1.48;;
6941;SDS011;3510;43.200;27.920;2023-04-15T12:04:19;3.45;;;1.98;;
6941;SDS011;3510;43.200;27.920;2023-04-15T12:06:56;3.47;;;2.35;;
6941;SDS011;3510;43.200;27.920;2023-04-15T12:09:32;4.85;;;2.10;;
6941;SDS011;3510;43.200;27.920;2023-04-15T12:12:02;4.15;;;1.65;;
6941;SDS011;3510;43.200;27.920;2023-04-15T12:14:29;3.28;;;2.22;;
6941;SDS011;3510;43.200;27.920;2023-04-15T12:16:59;2.10;;;1.35;;
6941;SDS011;3510;43.200;27.920;2023-04-15T12:19:28;3.15;;;1.60;;
6941;SDS011;3510;43.200;27.920;2023-04-15T12:21:57;1.80;;;1.60;;
6941;SDS011;3510;43.200;27.920;2023-04-15T12:24:28;3.67;;;1.92;;
6941;SDS011;3510;43.200;27.920;2023-04-15T12:27:00;4.28;;;1.95;;
6941;SDS011;3510;43.200;27.920;2023-04-15T12:29:29;2.60;;;1.35;;
6941;SDS011;3510;43.200;27.920;2023-04-15T12:31:57;3.78;;;1.42;;
6941;SDS011;3510;43.200;27.920;2023-04-15T12:34:29;1.90;;;1.15;;
6941;SDS011;3510;43.200;27.920;2023-04-15T12:36:58;1.42;;;1.25;;
6941;SDS011;3510;43.200;27.920;2023-04-15T12:39:28;2.60;;;2.03;;
6941;SDS011;3510;43.200;27.920;2023-04-15T12:41:56;4.00;;;1.38;;
6941;SDS011;3510;43.200;27.920;2023-04-15T12:44:24;1.65;;;1.40;;
6941;SDS011;3510;43.200;27.920;2023-04-15T12:46:52;1.98;;;1.35;;
6941;SDS011;3510;43.200;27.920;2023-04-15T12:49:20;4.47;;;1.52;;
6941;SDS011;3510;43.200;27.920;2023-04-15T12:51:49;5.40;;;1.55;;
6941;SDS011;3510;43.200;27.920;2023-04-15T12:54:17;1.92;;;1.70;;
6941;SDS011;3510;43.200;27.920;2023-04-15T12:56:46;3.42;;;1.70;;
6941;SDS011;3510;43.200;27.920;2023-04-15T12:59:15;3.13;;;1.83;;
6941;SDS011;3510;43.200;27.920;2023-04-15T13:01:42;3.17;;;1.90;;
6941;SDS011;3510;43.200;27.920;2023-04-15T13:04:09;5.15;;;1.90;;
6941;SDS011;3510;43.200;27.920;2023-04-15T13:06:37;3.33;;;1.80;;
6941;SDS011;3510;43.200;27.920;2023-04-15T13:09:05;2.95;;;1.88;;
6941;SDS011;3510;43.200;27.920;2023-04-15T13:11:32;3.28;;;1.65;;
6941;SDS011;3510;43.200;27.920;2023-04-15T13:14:02;3.53;;;1.40;;
6941;SDS011;3510;43.200;27.920;2023-04-15T13:16:30;3.55;;;1.55;;
6941;SDS011;3510;43.200;27.920;2023-04-15T13:18:57;1.70;;;1.60;;
6941;SDS011;3510;43.200;27.920;2023-04-15T13:21:24;2.05;;;1.70;;
6941;SDS011;3510;43.200;27.920;2023-04-15T13:23:52;4.45;;;2.20;;
6941;SDS011;3510;43.200;27.920;2023-04-15T13:26:19;3.53;;;2.67;;
6941;SDS011;3510;43.200;27.920;2023-04-15T13:28:46;4.68;;;2.28;;
6941;SDS011;3510;43.200;27.920;2023-04-15T13:31:15;4.78;;;2.83;;
6941;SDS011;3510;43.200;27.920;2023-04-15T13:33:43;3.92;;;1.83;;
6941;SDS011;3510;43.200;27.920;2023-04-15T13:36:09;4.22;;;2.10;;
6941;SDS011;3510;43.200;27.920;2023-04-15T13:38:36;4.45;;;2.53;;
6941;SDS011;3510;43.200;27.920;2023-04-15T13:41:03;4.93;;;1.80;;
6941;SDS011;3510;43.200;27.920;2023-04-15T13:43:30;2.00;;;1.90;;
6941;SDS011;3510;43.200;27.920;2023-04-15T13:45:58;8.23;;;1.75;;
6941;SDS011;3510;43.200;27.920;2023-04-15T13:48:26;2.38;;;1.67;;
6941;SDS011;3510;43.200;27.920;2023-04-15T13:50:53;4.15;;;1.38;;
6941;SDS011;3510;43.200;27.920;2023-04-15T13:53:20;1.50;;;1.40;;
6941;SDS011;3510;43.200;27.920;2023-04-15T13:55:47;2.47;;;2.00;;
6941;SDS011;3510;43.200;27.920;2023-04-15T13:58:15;4.63;;;1.60;;
6941;SDS011;3510;43.200;27.920;2023-04-15T14:00:42;5.65;;;2.08;;
6941;SDS011;3510;43.200;27.920;2023-04-15T14:03:09;2.35;;;1.80;;
6941;SDS011;3510;43.200;27.920;2023-04-15T14:05:37;2.20;;;1.50;;
6941;SDS011;3510;43.200;27.920;2023-04-15T14:08:04;3.22;;;1.63;;
6941;SDS011;3510;43.200;27.920;2023-04-15T14:10:31;2.00;;;1.75;;
6941;SDS011;3510;43.200;27.920;2023-04-15T14:12:58;4.20;;;1.83;;
6941;SDS011;3510;43.200;27.920;2023-04-15T14:15:27;2.08;;;1.60;;
6941;SDS011;3510;43.200;27.920;2023-04-15T14:17:53;1.85;;;1.70;;
6941;SDS011;3510;43.200;27.920;2023-04-15T14:20:20;2.53;;;1.95;;
6941;SDS011;3510;43.200;27.920;2023-04-15T14:22:49;2.17;;;1.77;;
6941;SDS011;3510;43.200;27.920;2023-04-15T14:25:15;3.35;;;1.90;;
6941;SDS011;3510;43.200;27.920;2023-04-15T14:27:42;4.00;;;1.90;;
6941;SDS011;3510;43.200;27.920;2023-04-15T14:30:11;3.50;;;1.83;;
6941;SDS011;3510;43.200;27.920;2023-04-15T14:32:38;1.70;;;1.60;;
6941;SDS011;3510;43.200;27.920;2023-04-15T14:35:06;2.25;;;1.40;;
6941;SDS011;3510;43.200;27.920;2023-04-15T14:37:32;3.28;;;1.52;;
6941;SDS011;3510;43.200;27.920;2023-04-15T14:40:01;3.22;;;2.00;;
6941;SDS011;3510;43.200;27.920;2023-04-15T14:42:31;4.20;;;1.70;;
6941;SDS011;3510;43.200;27.920;2023-04-15T14:44:58;2.25;;;1.83;;
6941;SDS011;3510;43.200;27.920;2023-04-15T14:47:26;3.97;;;2.20;;
6941;SDS011;3510;43.200;27.920;2023-04-15T14:49:52;8.57;;;2.97;;
6941;SDS011;3510;43.200;27.920;2023-04-15T14:52:19;3.97;;;2.90;;
6941;SDS011;3510;43.200;27.920;2023-04-15T14:54:46;3.97;;;2.72;;
6941;SDS011;3510;43.200;27.920;2023-04-15T14:57:29;6.28;;;3.22;;
6941;SDS011;3510;43.200;27.920;2023-04-15T14:59:55;4.07;;;2.72;;
6941;SDS011;3510;43.200;27.920;2023-04-15T15:02:23;5.13;;;3.05;;
6941;SDS011;3510;43.200;27.920;2023-04-15T15:04:51;2.92;;;2.30;;
6941;SDS011;3510;43.200;27.920;2023-04-15T15:07:18;4.93;;;2.30;;
6941;SDS011;3510;43.200;27.920;2023-04-15T15:09:52;7.25;;;2.78;;
6941;SDS011;3510;43.200;27.920;2023-04-15T15:12:19;3.88;;;2.30;;
6941;SDS011;3510;43.200;27.920;2023-04-15T15:14:49;6.15;;;2.33;;
6941;SDS011;3510;43.200;27.920;2023-04-15T15:17:17;3.78;;;2.08;;
6941;SDS011;3510;43.200;27.920;2023-04-15T15:19:44;3.13;;;2.00;;
6941;SDS011;3510;43.200;27.920;2023-04-15T15:22:12;5.57;;;3.30;;
6941;SDS011;3510;43.200;27.920;2023-04-15T15:24:40;4.85;;;2.47;;
6941;SDS011;3510;43.200;27.920;2023-04-15T15:27:23;5.68;;;2.45;;
6941;SDS011;3510;43.200;27.920;2023-04-15T15:30:06;5.57;;;2.10;;
6941;SDS011;3510;43.200;27.920;2023-04-15T15:32:34;4.35;;;2.55;;
6941;SDS011;3510;43.200;27.920;2023-04-15T15:35:01;3.55;;;2.47;;
6941;SDS011;3510;43.200;27.920;2023-04-15T15:37:29;4.05;;;2.92;;
6941;SDS011;3510;43.200;27.920;2023-04-15T15:39:56;5.65;;;2.72;;
6941;SDS011;3510;43.200;27.920;2023-04-15T15:42:25;3.38;;;3.08;;
6941;SDS011;3510;43.200;27.920;2023-04-15T15:44:54;4.63;;;3.05;;
6941;SDS011;3510;43.200;27.920;2023-04-15T15:57:46;4.20;;;2.50;;
6941;SDS011;3510;43.200;27.920;2023-04-15T16:00:14;8.60;;;2.23;;
6941;SDS011;3510;43.200;27.920;2023-04-15T16:02:41;4.05;;;3.03;;
6941;SDS011;3510;43.200;27.920;2023-04-15T16:05:10;2.90;;;2.60;;
6941;SDS011;3510;43.200;27.920;2023-04-15T16:07:51;6.13;;;3.80;;
6941;SDS011;3510;43.200;27.920;2023-04-15T16:10:18;4.60;;;2.60;;
6941;SDS011;3510;43.200;27.920;2023-04-15T16:12:46;4.68;;;3.03;;
6941;SDS011;3510;43.200;27.920;2023-04-15T16:15:13;5.20;;;2.53;;
6941;SDS011;3510;43.200;27.920;2023-04-15T16:17:40;4.32;;;2.40;;
6941;SDS011;3510;43.200;27.920;2023-04-15T16:20:07;2.83;;;2.60;;
6941;SDS011;3510;43.200;27.920;2023-04-15T16:22:35;2.40;;;2.20;;
6941;SDS011;3510;43.200;27.920;2023-04-15T16:27:41;4.10;;;2.15;;
6941;SDS011;3510;43.200;27.920;2023-04-15T16:30:09;2.60;;;2.40;;
6941;SDS011;3510;43.200;27.920;2023-04-15T16:32:37;4.63;;;2.97;;
6941;SDS011;3510;43.200;27.920;2023-04-15T16:35:05;4.77;;;2.90;;
6941;SDS011;3510;43.200;27.920;2023-04-15T16:37:32;7.43;;;2.93;;
6941;SDS011;3510;43.200;27.920;2023-04-15T16:40:00;5.43;;;2.80;;
6941;SDS011;3510;43.200;27.920;2023-04-15T16:42:27;6.30;;;3.00;;
6941;SDS011;3510;43.200;27.920;2023-04-15T16:44:54;3.00;;;2.80;;